createdAt,value
2019-06-07T00:01:00.000Z,98506
2019-06-07T00:06:00.000Z,98518
2019-06-07T00:11:00.000Z,98532
2019-06-07T00:16:00.000Z,98529
2019-06-07T00:21:00.000Z,98533
2019-06-07T00:27:00.000Z,98524
2019-06-07T00:32:00.000Z,98535
2019-06-07T00:37:00.000Z,98537
2019-06-07T00:42:00.000Z,98534
2019-06-07T00:47:00.000Z,98527
2019-06-07T00:52:00.000Z,98505
2019-06-07T00:58:00.000Z,98521
2019-06-07T01:03:00.000Z,98510
2019-06-07T01:08:00.000Z,98493
2019-06-07T01:13:00.000Z,98499
2019-06-07T01:18:00.000Z,98510
2019-06-07T01:23:00.000Z,98504
2019-06-07T01:29:00.000Z,98499
2019-06-07T01:34:00.000Z,98490
2019-06-07T01:39:00.000Z,98492
2019-06-07T01:44:00.000Z,98496
2019-06-07T01:49:00.000Z,98492
2019-06-07T01:54:00.000Z,98500
2019-06-07T01:59:00.000Z,98499
2019-06-07T02:05:00.000Z,98505
2019-06-07T02:10:00.000Z,98508
2019-06-07T02:15:00.000Z,98510
2019-06-07T02:20:00.000Z,98512
2019-06-07T02:25:00.000Z,98511
2019-06-07T02:30:00.000Z,98528
2019-06-07T02:36:00.000Z,98549
2019-06-07T02:41:00.000Z,98544
2019-06-07T02:46:00.000Z,98548
2019-06-07T02:51:00.000Z,98559
2019-06-07T02:56:00.000Z,98557
2019-06-07T03:01:00.000Z,98568
2019-06-07T03:07:00.000Z,98555
2019-06-07T03:12:00.000Z,98557
2019-06-07T03:17:00.000Z,98559
2019-06-07T03:22:00.000Z,98556
2019-06-07T03:27:00.000Z,98559
2019-06-07T03:32:00.000Z,98573
2019-06-07T03:37:00.000Z,98583
2019-06-07T03:42:00.000Z,98579
2019-06-07T03:47:00.000Z,98582
2019-06-07T03:52:00.000Z,98591
2019-06-07T03:57:00.000Z,98589
2019-06-07T04:03:00.000Z,98597
2019-06-07T04:08:00.000Z,98607
2019-06-07T04:13:00.000Z,98621
2019-06-07T04:18:00.000Z,98619
2019-06-07T04:23:00.000Z,98610
2019-06-07T04:28:00.000Z,98617
2019-06-07T04:34:00.000Z,98635
2019-06-07T04:39:00.000Z,98632
2019-06-07T04:44:00.000Z,98630
2019-06-07T04:49:00.000Z,98630
2019-06-07T04:54:00.000Z,98638
2019-06-07T04:59:00.000Z,98647
2019-06-07T05:05:00.000Z,98644
2019-06-07T05:10:00.000Z,98657
2019-06-07T05:15:00.000Z,98656
2019-06-07T05:20:00.000Z,98668
2019-06-07T05:25:00.000Z,98666
2019-06-07T05:30:00.000Z,98672
2019-06-07T05:36:00.000Z,98673
2019-06-07T05:41:00.000Z,98665
2019-06-07T05:46:00.000Z,98681
2019-06-07T05:51:00.000Z,98688
2019-06-07T05:56:00.000Z,98685
2019-06-07T06:01:00.000Z,98680
2019-06-07T06:06:00.000Z,98687
2019-06-07T06:11:00.000Z,98684
2019-06-07T06:17:00.000Z,98672
2019-06-07T06:22:00.000Z,98683
2019-06-07T06:27:00.000Z,98678
2019-06-07T06:33:00.000Z,98688
2019-06-07T06:38:00.000Z,98680
2019-06-07T06:43:00.000Z,98699
2019-06-07T06:48:00.000Z,98690
2019-06-07T06:53:00.000Z,98683
2019-06-07T06:58:00.000Z,98693
2019-06-07T07:04:00.000Z,98694
2019-06-07T07:09:00.000Z,98705
2019-06-07T07:14:00.000Z,98703
2019-06-07T07:19:00.000Z,98709
2019-06-07T07:24:00.000Z,98709
2019-06-07T07:29:00.000Z,98699
2019-06-07T07:35:00.000Z,98713
2019-06-07T07:40:00.000Z,98710
2019-06-07T07:46:00.000Z,98715
2019-06-07T07:51:00.000Z,98701
2019-06-07T07:56:00.000Z,98711
2019-06-07T08:01:00.000Z,98702
2019-06-07T08:06:00.000Z,98701
2019-06-07T08:11:00.000Z,98698
2019-06-07T08:16:00.000Z,98704
2019-06-07T08:21:00.000Z,98705
2019-06-07T08:26:00.000Z,98705
2019-06-07T08:31:00.000Z,98712
2019-06-07T08:36:00.000Z,98720
2019-06-07T08:41:00.000Z,98722
2019-06-07T08:47:00.000Z,98727
2019-06-07T08:52:00.000Z,98726
2019-06-07T08:57:00.000Z,98717
2019-06-07T09:02:00.000Z,98733
2019-06-07T09:07:00.000Z,98727
2019-06-07T09:12:00.000Z,98727
2019-06-07T09:17:00.000Z,98721
2019-06-07T09:22:00.000Z,98712
2019-06-07T09:27:00.000Z,98718
2019-06-07T09:32:00.000Z,98716
2019-06-07T09:37:00.000Z,98717
2019-06-07T09:43:00.000Z,98729
2019-06-07T09:49:00.000Z,98721
2019-06-07T09:54:00.000Z,98721
2019-06-07T10:00:00.000Z,98705
2019-06-07T10:05:00.000Z,98700
2019-06-07T10:10:00.000Z,98713
2019-06-07T10:15:00.000Z,98704
2019-06-07T10:20:00.000Z,98700
2019-06-07T10:25:00.000Z,98704
2019-06-07T10:30:00.000Z,98698
2019-06-07T10:35:00.000Z,98688
2019-06-07T10:40:00.000Z,98689
2019-06-07T10:45:00.000Z,98681
2019-06-07T10:50:00.000Z,98680
2019-06-07T10:55:00.000Z,98680
2019-06-07T11:00:00.000Z,98678
2019-06-07T11:05:00.000Z,98664
2019-06-07T11:10:00.000Z,98663
2019-06-07T11:15:00.000Z,98665
2019-06-07T11:20:00.000Z,98654
2019-06-07T11:25:00.000Z,98652
2019-06-07T11:30:00.000Z,98652
2019-06-07T11:35:00.000Z,98649
2019-06-07T11:40:00.000Z,98643
2019-06-07T11:45:00.000Z,98650
2019-06-07T11:50:00.000Z,98648
2019-06-07T11:56:00.000Z,98640
2019-06-07T12:01:00.000Z,98631
2019-06-07T12:06:00.000Z,98629
2019-06-07T12:11:00.000Z,98625
2019-06-07T12:16:00.000Z,98615
2019-06-07T12:21:00.000Z,98620
2019-06-07T12:26:00.000Z,98612
2019-06-07T12:31:00.000Z,98605
2019-06-07T12:36:00.000Z,98602
2019-06-07T12:41:00.000Z,98596
2019-06-07T12:46:00.000Z,98599
2019-06-07T12:51:00.000Z,98586
2019-06-07T12:56:00.000Z,98595
2019-06-07T13:01:00.000Z,98584
2019-06-07T13:06:00.000Z,98584
2019-06-07T13:11:00.000Z,98575
2019-06-07T13:16:00.000Z,98581
2019-06-07T13:21:00.000Z,98579
2019-06-07T13:26:00.000Z,98574
2019-06-07T13:31:00.000Z,98573
2019-06-07T13:36:00.000Z,98570
2019-06-07T13:41:00.000Z,98560
2019-06-07T13:46:00.000Z,98563
2019-06-07T13:51:00.000Z,98563
2019-06-07T13:56:00.000Z,98554
2019-06-07T14:02:00.000Z,98561
2019-06-07T14:07:00.000Z,98547
2019-06-07T14:12:00.000Z,98545
2019-06-07T14:17:00.000Z,98534
2019-06-07T14:22:00.000Z,98527
2019-06-07T14:27:00.000Z,98522
2019-06-07T14:32:00.000Z,98524
2019-06-07T14:37:00.000Z,98520
2019-06-07T14:42:00.000Z,98521
2019-06-07T14:47:00.000Z,98516
2019-06-07T14:52:00.000Z,98508
2019-06-07T14:57:00.000Z,98507
2019-06-07T15:02:00.000Z,98510
2019-06-07T15:07:00.000Z,98513
2019-06-07T15:12:00.000Z,98507
2019-06-07T15:17:00.000Z,98500
2019-06-07T15:22:00.000Z,98497
2019-06-07T15:27:00.000Z,98497
2019-06-07T15:32:00.000Z,98491
2019-06-07T15:37:00.000Z,98489
2019-06-07T15:42:00.000Z,98489
2019-06-07T15:47:00.000Z,98486
2019-06-07T15:52:00.000Z,98483
2019-06-07T15:57:00.000Z,98480
2019-06-07T16:02:00.000Z,98483
2019-06-07T16:07:00.000Z,98467
2019-06-07T16:12:00.000Z,98467
2019-06-07T16:18:00.000Z,98465
2019-06-07T16:23:00.000Z,98465
2019-06-07T16:28:00.000Z,98462
2019-06-07T16:33:00.000Z,98457
2019-06-07T16:38:00.000Z,98460
2019-06-07T16:43:00.000Z,98453
2019-06-07T16:48:00.000Z,98452
2019-06-07T16:53:00.000Z,98456
2019-06-07T16:58:00.000Z,98454
2019-06-07T17:03:00.000Z,98459
2019-06-07T17:08:00.000Z,98465
2019-06-07T17:13:00.000Z,98454
2019-06-07T17:18:00.000Z,98440
2019-06-07T17:23:00.000Z,98457
2019-06-07T17:28:00.000Z,98445
2019-06-07T17:33:00.000Z,98450
2019-06-07T17:38:00.000Z,98451
2019-06-07T17:43:00.000Z,98440
2019-06-07T17:49:00.000Z,98447
2019-06-07T17:54:00.000Z,98441
2019-06-07T17:59:00.000Z,98443
2019-06-07T18:04:00.000Z,98436
2019-06-07T18:09:00.000Z,98438
2019-06-07T18:14:00.000Z,98437
2019-06-07T18:19:00.000Z,98437
2019-06-07T18:24:00.000Z,98442
2019-06-07T18:29:00.000Z,98441
2019-06-07T18:34:00.000Z,98450
2019-06-07T18:39:00.000Z,98447
2019-06-07T18:44:00.000Z,98441
2019-06-07T18:49:00.000Z,98453
2019-06-07T18:54:00.000Z,98450
2019-06-07T18:59:00.000Z,98456
2019-06-07T19:04:00.000Z,98457
2019-06-07T19:09:00.000Z,98460
2019-06-07T19:14:00.000Z,98454
2019-06-07T19:19:00.000Z,98458
2019-06-07T19:24:00.000Z,98467
2019-06-07T19:29:00.000Z,98456
2019-06-07T19:34:00.000Z,98464
2019-06-07T19:39:00.000Z,98473
2019-06-07T19:44:00.000Z,98484
2019-06-07T19:50:00.000Z,98475
2019-06-07T19:55:00.000Z,98485
2019-06-07T20:00:00.000Z,98481
2019-06-07T20:05:00.000Z,98481
2019-06-07T20:10:00.000Z,98476
2019-06-07T20:15:00.000Z,98484
2019-06-07T20:20:00.000Z,98481
2019-06-07T20:25:00.000Z,98484
2019-06-07T20:30:00.000Z,98485
2019-06-07T20:35:00.000Z,98488
2019-06-07T20:40:00.000Z,98487
2019-06-07T20:45:00.000Z,98490
2019-06-07T20:50:00.000Z,98496
2019-06-07T20:55:00.000Z,98485
2019-06-07T21:00:00.000Z,98485
2019-06-07T21:05:00.000Z,98502
2019-06-07T21:10:00.000Z,98498
2019-06-07T21:15:00.000Z,98494
2019-06-07T21:20:00.000Z,98502
2019-06-07T21:25:00.000Z,98498
2019-06-07T21:30:00.000Z,98501
2019-06-07T21:35:00.000Z,98492
2019-06-07T21:40:00.000Z,98497
2019-06-07T21:45:00.000Z,98498
2019-06-07T21:51:00.000Z,98486
2019-06-07T21:56:00.000Z,98483
2019-06-07T22:01:00.000Z,98483
2019-06-07T22:06:00.000Z,98479
2019-06-07T22:11:00.000Z,98478
2019-06-07T22:16:00.000Z,98476
2019-06-07T22:21:00.000Z,98477
2019-06-07T22:26:00.000Z,98482
2019-06-07T22:31:00.000Z,98473
2019-06-07T22:36:00.000Z,98475
2019-06-07T22:41:00.000Z,98466
2019-06-07T22:46:00.000Z,98472
2019-06-07T22:51:00.000Z,98461
2019-06-07T22:56:00.000Z,98473
2019-06-07T23:01:00.000Z,98466
2019-06-07T23:06:00.000Z,98455
2019-06-07T23:11:00.000Z,98452
2019-06-07T23:16:00.000Z,98463
2019-06-07T23:21:00.000Z,98455
2019-06-07T23:26:00.000Z,98457
2019-06-07T23:31:00.000Z,98450
2019-06-07T23:36:00.000Z,98445
2019-06-07T23:41:00.000Z,98458
2019-06-07T23:47:00.000Z,98443
2019-06-07T23:52:00.000Z,98451
2019-06-07T23:57:00.000Z,98446
